Latest Weather Observations for Nuriootpa

IDS60901

Issued at 11:21 am CST Thursday 30 July 2015 (issued every 10 minutes, with the page automatically refreshed every 10 minutes)

About weather observations | Map of Adelaide area stations | Latest observations for Adelaide area | Other Formats
Station Details ID: 023373 Name: NURIOOTPA VITICULTURAL Lat: -34.48 Lon: 139.01 Height: 275.0 m
Data from the previous 72 hours. | See also: Recent months at Nuriootpa
Date/Time
CST
Tmp

°C
App
Tmp
°C
Dew
Point
°C
Rel
Hum
%
Delta-T

°C
Wind Press
QNH
hPa
Press
MSL
hPa
Rain
since
9 am
mm
Dir
 
Spd
km/h
Gust
km/h
Spd
kts
Gust
kts
30/11:00am 14.1 4.5 -1.8 33 6.5 NW 39 57 21 31 1018.5 1018.8 0.0
30/10:30am 14.3 5.4 -1.9 32 6.6 NW 35 56 19 30 1018.3 1018.6 0.0
30/10:00am 13.6 5.3 -1.6 35 6.2 NW 32 50 17 27 1018.7 1019.0 0.0
30/09:35am 13.0 5.3 -2.7 33 6.2 NNW 28 52 15 28 1018.9 1019.3 0.0
30/09:30am 13.0 6.1 -2.3 34 6.1 NNW 24 39 13 21 1018.9 1019.3 0.0
30/09:00am 11.7 5.9 -1.5 40 5.3 NNW 19 32 10 17 1019.3 1019.7 0.2
30/08:30am 11.4 5.3 -2.4 38 5.4 NNW 20 46 11 25 1019.5 1019.9 0.2
30/08:00am 9.3 5.5 -0.4 50 3.9 NNE 9 17 5 9 1019.7 1020.1 0.2
30/07:30am 9.1 5.3 -0.4 51 3.8 NNE 9 13 5 7 1019.6 1020.0 0.2
30/07:00am 9.5 4.5 -1.5 46 4.3 NNW 15 28 8 15 1019.6 1020.0 0.2
30/06:30am 9.4 4.8 -0.9 48 4.1 N 13 19 7 10 1019.3 1019.7 0.2
30/06:00am 9.6 4.2 -1.3 46 4.3 NW 17 28 9 15 1020.1 1020.5 0.2
30/05:30am 9.2 4.6 -0.9 49 4.0 WNW 13 19 7 10 1020.7 1021.1 0.0
30/05:00am 9.6 4.5 -1.7 45 4.4 W 15 20 8 11 1021.0 1021.4 0.0
30/04:30am 9.3 5.1 -1.1 48 4.1 W 11 17 6 9 1020.9 1021.3 0.0
30/04:00am 9.3 5.3 -2.2 44 4.4 W 9 15 5 8 1021.0 1021.4 0.0
30/03:30am 7.5 5.9 2.5 70 2.1 CALM 0 6 0 3 1021.3 1021.7 0.0
30/03:00am 6.6 4.2 4.1 84 1.1 S 6 9 3 5 1022.0 1022.4 0.0
30/02:30am 6.5 4.8 4.0 84 1.1 SSE 2 6 1 3 1022.5 1022.9 0.0
30/02:00am 6.7 5.4 4.2 84 1.1 CALM 0 0 0 0 1022.8 1023.2 0.0
30/01:30am 6.8 5.3 3.0 77 1.6 CALM 0 0 0 0 1023.0 1023.4 0.0
30/01:00am 6.5 4.8 4.0 84 1.1 ESE 2 6 1 3 1023.2 1023.6 0.0
30/12:30am 6.5 4.3 3.2 79 1.4 E 4 7 2 4 1023.4 1023.8 0.0
30/12:00am 6.5 5.0 2.9 78 1.5 CALM 0 4 0 2 1023.8 1024.2 0.0
 
Date/Time
CST
Tmp

°C
App
Tmp
°C
Dew
Point
°C
Rel
Hum
%
Delta-T

°C
Wind Press
QNH
hPa
Press
MSL
hPa
Rain
since
9 am
mm
Dir
 
Spd
km/h
Gust
km/h
Spd
kts
Gust
kts
29/11:30pm 6.5 3.6 2.7 77 1.6 SE 7 9 4 5 1023.9 1024.3 0.0
29/11:00pm 6.3 4.7 2.2 75 1.7 CALM 0 0 0 0 1024.0 1024.4 0.0
29/10:30pm 6.3 3.2 1.4 71 2.0 E 7 13 4 7 1024.4 1024.8 0.0
29/10:00pm 5.1 2.2 1.3 76 1.5 ENE 6 9 3 5 1024.9 1025.3 0.0
29/09:30pm 6.8 3.4 1.7 70 2.1 NE 9 13 5 7 1025.2 1025.7 0.0
29/09:00pm 7.3 3.9 1.7 67 2.3 NNE 9 13 5 7 1025.4 1025.9 0.0
29/08:30pm 7.9 4.5 1.9 66 2.5 NNE 9 13 5 7 1025.4 1025.9 0.0
29/08:00pm 8.7 5.3 1.8 62 2.9 NNE 9 19 5 10 1025.5 1026.0 0.0
29/07:30pm 8.5 5.2 2.6 66 2.5 NE 9 11 5 6 1025.7 1026.1 0.0
29/07:00pm 9.2 5.9 2.4 62 2.9 NNE 9 13 5 7 1026.0 1026.4 0.0
29/06:30pm 8.8 5.6 3.3 68 2.4 NNE 9 13 5 7 1025.8 1026.2 0.0
29/06:00pm 8.8 5.8 4.0 72 2.1 NE 9 11 5 6 1025.9 1026.3 0.0
29/05:30pm 9.3 6.6 3.6 67 2.5 NE 7 11 4 6 1025.9 1026.3 0.0
29/05:00pm 10.0 7.0 3.9 66 2.7 NNE 9 15 5 8 1025.7 1026.1 0.0
29/04:30pm 10.7 7.6 3.7 62 3.1 NNE 9 15 5 8 1026.0 1026.4 0.0
29/04:00pm 10.9 7.3 3.2 59 3.4 NNW 11 20 6 11 1026.5 1026.9 0.0
29/03:30pm 11.2 6.7 1.9 52 4.0 NNW 15 20 8 11 1026.7 1027.1 0.0
29/03:00pm 11.5 6.9 1.7 51 4.2 NNW 15 22 8 12 1026.7 1027.1 0.0
29/02:30pm 11.9 7.4 2.0 50 4.3 NNW 15 20 8 11 1026.9 1027.3 0.0
29/02:00pm 11.1 6.2 1.7 52 4.0 NNW 17 22 9 12 1027.5 1027.9 0.0
29/01:30pm 10.8 6.7 2.2 55 3.7 NNW 13 20 7 11 1028.0 1028.5 0.0
29/01:00pm 10.4 6.3 2.2 57 3.5 NNW 13 19 7 10 1028.3 1028.8 0.0
29/12:30pm 10.5 6.0 2.4 57 3.5 NNW 15 20 8 11 1029.2 1029.7 0.0
29/12:00pm 10.6 6.1 1.9 55 3.7 NNW 15 22 8 12 1029.6 1030.0 0.0
29/11:30am 10.4 5.9 2.2 57 3.5 NNW 15 26 8 14 1030.5 1030.9 0.0
29/11:00am 10.0 5.6 2.6 60 3.2 N 15 20 8 11 1030.7 1031.1 0.0
29/10:30am 9.7 5.6 2.4 60 3.1 NNW 13 19 7 10 1031.3 1031.8 0.0
29/10:00am 8.1 4.5 2.7 69 2.3 N 11 17 6 9 1031.4 1031.9 0.0
29/09:30am 6.8 3.0 1.9 71 2.0 N 11 15 6 8 1031.5 1032.0 0.0
29/09:00am 6.0 1.8 1.8 74 1.7 NNE 13 17 7 9 1030.9 1031.3 0.0
29/08:30am 5.8 2.4 1.6 74 1.7 N 9 13 5 7 1032.1 1032.6 0.0
29/08:00am 5.9 2.0 1.1 71 1.9 N 11 13 6 7 1032.1 1032.6 0.0
29/07:30am 5.0 1.9 1.2 76 1.5 N 7 9 4 5 1031.5 1032.0 0.0
29/07:00am 4.8 1.3 1.3 78 1.4 NNE 9 11 5 6 1031.1 1031.6 0.0
29/06:30am 4.7 0.8 1.4 79 1.3 NE 11 13 6 7 1030.6 1031.0 0.0
29/06:00am 3.7 0.2 1.1 83 1.0 NE 9 11 5 6 1031.4 1031.9 0.0
29/05:30am 3.5 0.4 1.2 85 0.9 ENE 7 9 4 5 1031.3 1031.8 0.0
29/05:00am 4.0 0.1 1.2 82 1.1 NNE 11 13 6 7 1031.0 1031.4 0.0
29/04:30am 3.6 0.4 1.0 83 1.0 NNE 7 9 4 5 1031.4 1031.9 0.0
29/04:00am 3.3 0.3 1.8 90 0.6 NE 7 9 4 5 1031.1 1031.6 0.0
29/03:30am 3.8 0.8 1.8 87 0.8 NNE 7 9 4 5 1031.5 1032.0 0.0
29/03:00am 3.4 0.4 1.9 90 0.6 NE 7 9 4 5 1031.4 1031.9 0.0
29/02:30am 3.0 0.1 1.7 91 0.5 NE 6 7 3 4 1031.7 1032.2 0.0
29/02:00am 2.8 -0.2 1.8 93 0.4 ENE 7 9 4 5 1031.8 1032.3 0.0
29/01:30am 2.7 1.0 1.9 94 0.3 CALM 0 0 0 0 1032.1 1032.6 0.0
29/01:00am 2.9 0.1 1.9 93 0.4 ENE 6 7 3 4 1032.3 1032.8 0.0
29/12:30am 3.6 2.0 2.4 92 0.5 CALM 0 0 0 0 1032.8 1033.3 0.0
29/12:00am 4.2 2.6 2.5 89 0.7 CALM 0 0 0 0 1032.8 1033.3 0.0
 
Date/Time
CST
Tmp

°C
App
Tmp
°C
Dew
Point
°C
Rel
Hum
%
Delta-T

°C
Wind Press
QNH
hPa
Press
MSL
hPa
Rain
since
9 am
mm
Dir
 
Spd
km/h
Gust
km/h
Spd
kts
Gust
kts
28/11:30pm 4.4 1.7 2.9 90 0.6 N 6 7 3 4 1033.2 1033.7 0.0
28/11:00pm 4.7 1.9 3.0 89 0.7 ENE 7 9 4 5 1033.4 1033.8 0.0
28/10:30pm 4.6 2.0 3.4 92 0.5 ENE 6 7 3 4 1034.1 1034.6 0.0
28/10:00pm 5.4 3.4 4.5 94 0.4 N 4 7 2 4 1034.3 1034.8 0.0
28/09:30pm 6.0 3.7 4.6 91 0.6 ENE 6 9 3 5 1034.0 1034.4 0.0
28/09:00pm 6.8 5.7 5.2 89 0.7 CALM 0 0 0 0 1034.6 1035.1 0.0
28/08:30pm 6.9 5.5 5.6 91 0.6 NNE 2 6 1 3 1034.4 1034.9 0.0
28/08:00pm 7.5 5.8 5.7 88 0.8 SSE 4 7 2 4 1034.3 1034.8 0.0
28/07:30pm 8.3 6.2 5.9 85 1.1 ENE 6 7 3 4 1034.3 1034.8 0.0
28/07:00pm 8.9 6.9 6.1 82 1.3 ESE 6 9 3 5 1033.8 1034.2 0.0
28/06:30pm 9.4 8.0 5.5 76 1.8 WSW 2 7 1 4 1034.3 1034.8 0.0
28/06:00pm 9.7 7.4 5.8 77 1.8 SW 7 9 4 5 1034.4 1034.9 0.0
28/05:30pm 9.9 7.3 6.0 77 1.8 SW 9 11 5 6 1034.6 1035.1 0.0
28/05:00pm 10.3 7.5 5.3 71 2.3 SW 9 11 5 6 1034.2 1034.7 0.0
28/04:30pm 10.5 7.2 4.5 66 2.7 WSW 11 13 6 7 1034.4 1034.9 0.0
28/04:00pm 11.0 7.7 4.3 63 3.0 W 11 17 6 9 1034.1 1034.6 0.0
28/03:30pm 11.7 9.5 3.1 55 3.8 S 4 9 2 5 1034.2 1034.7 0.0
28/03:00pm 11.0 8.3 3.8 61 3.2 SSW 7 11 4 6 1034.2 1034.7 0.0
28/02:30pm 11.8 8.9 4.8 62 3.2 W 9 11 5 6 1034.4 1034.9 0.0
28/02:00pm 12.0 9.5 4.8 61 3.3 W 7 9 4 5 1034.7 1035.2 0.0
28/01:30pm 10.4 8.2 5.1 69 2.4 SSW 6 7 3 4 1035.2 1035.7 0.0
28/01:00pm 10.3 7.5 5.0 69 2.4 WSW 9 13 5 7 1035.6 1036.1 0.0
28/12:30pm 11.1 8.6 4.7 64 2.9 WNW 7 17 4 9 1036.3 1036.8 0.0
28/12:00pm 10.3 8.3 4.5 67 2.6 NW 4 9 2 5 1036.8 1037.3 0.0
28/11:30am 9.9 7.8 5.8 75 1.9 NW 6 9 3 5 1037.3 1037.8 0.0
28/11:00am 8.7 6.9 5.6 81 1.4 ESE 4 9 2 5 1037.7 1038.2 0.0
28/10:30am 8.6 7.3 6.0 84 1.2 NNE 2 9 1 5 1037.7 1038.2 0.0
28/10:00am 7.2 5.1 5.6 89 0.7 NNE 6 9 3 5 1038.0 1038.5 0.0
28/09:30am 6.9 4.7 5.1 88 0.8 NNW 6 9 3 5 1037.7 1038.2 0.0
28/09:00am 5.4 3.5 4.9 97 0.2 NNE 4 7 2 4 1037.7 1038.2 0.2
28/08:30am 4.3 1.6 3.8 97 0.2 NE 7 9 4 5 1037.8 1038.3 0.2
28/08:00am 3.7 2.3 3.5 99 0.1 CALM 0 2 0 1 1037.7 1038.2 0.2
28/07:30am 3.4 0.8 3.4 100 0.0 NE 6 9 3 5 1037.9 1038.4 0.2
28/07:00am 3.1 0.5 3.1 100 0.0 NE 6 7 3 4 1037.4 1037.9 0.2
28/06:30am 2.7 1.1 2.4 98 0.1 CALM 0 0 0 0 1037.4 1037.9 0.2
28/06:00am 2.3 0.7 2.3 100 0.0 CALM 0 0 0 0 1036.9 1037.4 0.2
28/05:30am 2.1 0.4 1.8 98 0.1 CALM 0 7 0 4 1036.4 1036.9 0.2
28/05:00am 2.7 0.8 2.7 100 0.0 E 2 7 1 4 1036.2 1036.7 0.2
28/04:30am 3.5 2.1 3.5 100 0.0 CALM 0 0 0 0 1036.0 1036.5 0.2
28/04:00am 4.3 3.0 4.3 100 0.0 CALM 0 0 0 0 1036.0 1036.5 0.2
28/03:30am 4.2 2.9 4.0 99 0.1 CALM 0 0 0 0 1036.1 1036.6 0.2
28/03:00am 4.3 1.7 4.1 99 0.1 NE 7 9 4 5 1036.1 1036.6 0.2
28/02:30am 4.6 2.1 4.6 100 0.0 NNE 7 9 4 5 1036.2 1036.7 0.2
28/02:00am 4.4 3.1 4.2 99 0.1 CALM 0 0 0 0 1036.3 1036.8 0.2
28/01:30am 4.0 2.3 3.8 99 0.1 E 2 7 1 4 1036.2 1036.7 0.2
28/01:00am 4.6 2.2 4.4 99 0.1 ENE 6 9 3 5 1036.1 1036.6 0.2
28/12:30am 4.7 3.5 4.5 99 0.1 CALM 0 0 0 0 1036.0 1036.5 0.0
28/12:00am 4.0 1.5 3.5 97 0.2 NNE 6 7 3 4 1035.8 1036.3 0.0
 
Date/Time
CST
Tmp

°C
App
Tmp
°C
Dew
Point
°C
Rel
Hum
%
Delta-T

°C
Wind Press
QNH
hPa
Press
MSL
hPa
Rain
since
9 am
mm
Dir
 
Spd
km/h
Gust
km/h
Spd
kts
Gust
kts
27/11:30pm 3.8 1.2 3.3 97 0.2 ENE 6 9 3 5 1035.9 1036.4 0.0
27/11:00pm 3.3 1.8 2.8 97 0.2 CALM 0 0 0 0 1036.1 1036.6 0.0
27/10:30pm 2.5 0.1 2.2 98 0.1 ENE 4 9 2 5 1036.0 1036.5 0.0
27/10:00pm 2.0 -0.9 1.7 98 0.1 ENE 6 7 3 4 1036.1 1036.6 0.0
27/09:30pm 1.6 -0.2 1.1 96 0.2 CALM 0 0 0 0 1036.1 1036.6 0.0
27/09:00pm 2.1 0.4 1.6 96 0.2 CALM 0 0 0 0 1035.9 1036.4 0.0
27/08:30pm 2.7 0.3 1.9 94 0.3 NNE 4 7 2 4 1035.8 1036.3 0.0
27/08:00pm 2.6 -0.4 1.8 94 0.3 ENE 7 9 4 5 1035.8 1036.3 0.0
27/07:30pm 3.3 1.7 2.6 95 0.3 CALM 0 6 0 3 1035.7 1036.2 0.0
27/07:00pm 5.0 2.3 3.6 91 0.6 WSW 7 7 4 4 1035.5 1036.0 0.0
27/06:30pm 6.1 3.4 3.7 84 1.0 WNW 7 9 4 5 1035.2 1035.7 0.0
27/06:00pm 6.8 3.8 4.0 82 1.2 W 9 9 5 5 1034.9 1035.4 0.0
27/05:30pm 8.0 5.0 3.9 75 1.8 WSW 9 13 5 7 1034.8 1035.3 0.0
27/05:00pm 8.6 5.1 3.3 69 2.3 WSW 11 17 6 9 1034.6 1035.1 0.0
27/04:30pm 9.9 5.5 2.7 61 3.1 WSW 15 22 8 12 1034.3 1034.8 0.0
27/04:00pm 10.1 6.4 4.5 68 2.5 SSW 13 19 7 10 1034.2 1034.7 0.0
27/03:30pm 9.9 5.7 4.0 67 2.6 SW 15 20 8 11 1034.0 1034.4 0.0
27/03:00pm 9.5 5.8 4.6 71 2.2 W 13 20 7 11 1034.0 1034.4 0.0
27/02:30pm 10.5 6.1 4.5 66 2.7 WSW 17 20 9 11 1033.7 1034.1 0.0
27/02:00pm 9.5 4.9 3.8 67 2.5 W 17 20 9 11 1033.6 1034.0 0.0
27/01:30pm 9.0 4.9 4.3 72 2.1 SW 15 20 8 11 1033.8 1034.2 0.0
27/01:00pm 9.1 5.9 5.1 76 1.8 WSW 11 17 6 9 1034.1 1034.6 0.0
27/12:30pm 8.4 5.3 5.5 82 1.3 W 11 15 6 8 1034.5 1035.0 0.0
27/12:00pm 8.8 5.3 5.5 80 1.5 W 13 17 7 9 1034.7 1035.2 0.0
27/11:30am 9.1 5.3 5.8 80 1.5 W 15 26 8 14 1035.0 1035.5 0.0

Latest Capital City Observations: Canberra | Sydney | Melbourne | Brisbane | Adelaide | Perth | Hobart | Darwin

Other Formats:

Comma delimited format used in spreadsheet applications
http://www.bom.gov.au/fwo/IDS60901/IDS60901.94681.axf

JavaScript Object Notation format (JSON) in row-major order
http://www.bom.gov.au/fwo/IDS60901/IDS60901.94681.json